createdAt,value
2022-10-09T00:00:07.296Z,2.35
2022-10-09T00:02:39.572Z,2.17
2022-10-09T00:05:09.688Z,2.67
2022-10-09T00:07:36.614Z,2.40
2022-10-09T00:10:08.235Z,3.17
2022-10-09T00:12:40.038Z,3.53
2022-10-09T00:15:07.174Z,3.03
2022-10-09T00:17:35.084Z,2.97
2022-10-09T00:20:02.459Z,2.25
2022-10-09T00:22:29.255Z,2.03
2022-10-09T00:24:59.247Z,2.67
2022-10-09T00:27:26.236Z,2.00
2022-10-09T00:29:54.442Z,2.65
2022-10-09T00:32:21.277Z,2.63
2022-10-09T00:34:51.759Z,2.70
2022-10-09T00:37:18.650Z,4.40
2022-10-09T00:39:50.418Z,4.55
2022-10-09T00:42:17.039Z,2.97
2022-10-09T00:44:49.788Z,3.13
2022-10-09T00:49:51.970Z,2.80
2022-10-09T00:52:19.800Z,2.10
2022-10-09T00:54:53.994Z,2.50
2022-10-09T00:57:27.140Z,2.42
2022-10-09T00:59:53.961Z,2.35
2022-10-09T01:02:21.950Z,2.42
2022-10-09T01:04:49.885Z,2.50
2022-10-09T01:07:37.762Z,2.65
2022-10-09T01:10:24.775Z,2.58
2022-10-09T01:13:00.006Z,1.95
2022-10-09T01:15:54.465Z,2.60
2022-10-09T01:18:26.630Z,1.92
2022-10-09T01:21:09.390Z,2.53
2022-10-09T01:24:04.558Z,2.33
2022-10-09T01:26:59.941Z,2.05
2022-10-09T01:29:33.989Z,2.05
2022-10-09T01:32:01.469Z,2.38
2022-10-09T01:34:32.413Z,1.90
2022-10-09T01:37:05.979Z,2.10
2022-10-09T01:39:42.344Z,2.17
2022-10-09T01:42:12.860Z,2.45
2022-10-09T01:44:42.838Z,2.30
2022-10-09T01:47:18.803Z,2.13
2022-10-09T01:49:58.727Z,2.35
2022-10-09T01:52:53.138Z,2.53
2022-10-09T01:55:46.033Z,2.33
2022-10-09T01:58:27.011Z,2.08
2022-10-09T02:01:54.012Z,2.58
2022-10-09T02:04:22.953Z,2.53
2022-10-09T02:06:50.198Z,2.25
2022-10-09T02:09:21.048Z,2.10
2022-10-09T02:11:53.917Z,1.98
2022-10-09T02:14:22.334Z,2.30
2022-10-09T02:17:02.689Z,2.03
2022-10-09T02:19:47.182Z,2.05
2022-10-09T02:22:35.278Z,2.72
2022-10-09T02:25:05.659Z,2.60
2022-10-09T02:27:35.292Z,2.90
2022-10-09T02:30:07.554Z,2.53
2022-10-09T02:32:37.910Z,2.83
2022-10-09T02:35:17.022Z,3.05
2022-10-09T02:37:46.118Z,3.22
2022-10-09T02:40:12.737Z,2.80
2022-10-09T02:42:39.477Z,2.88
2022-10-09T02:45:09.308Z,3.00
2022-10-09T02:47:39.069Z,2.90
2022-10-09T02:50:08.373Z,3.53
2022-10-09T02:52:47.253Z,3.13
2022-10-09T02:55:18.500Z,2.80
2022-10-09T02:57:47.970Z,3.08
2022-10-09T03:00:14.917Z,3.58
2022-10-09T03:02:52.776Z,3.30
2022-10-09T03:05:27.895Z,3.03
2022-10-09T03:07:58.149Z,2.75
2022-10-09T03:10:25.774Z,3.20
2022-10-09T03:13:12.075Z,3.53
2022-10-09T03:15:38.734Z,4.22
2022-10-09T03:18:06.986Z,3.28
2022-10-09T03:20:33.577Z,3.50
2022-10-09T03:23:04.974Z,3.22
2022-10-09T03:25:33.034Z,3.72
2022-10-09T03:27:59.791Z,3.65
2022-10-09T03:30:26.384Z,3.58
2022-10-09T03:32:56.830Z,3.90
2022-10-09T03:35:30.353Z,3.38
2022-10-09T03:37:56.996Z,3.45
2022-10-09T03:40:25.004Z,3.35
2022-10-09T03:42:56.098Z,3.22
2022-10-09T03:45:22.912Z,3.50
2022-10-09T03:47:49.480Z,3.38
2022-10-09T03:50:16.225Z,3.25
2022-10-09T03:52:44.872Z,3.30
2022-10-09T03:55:13.768Z,3.50
2022-10-09T03:57:42.721Z,3.85
2022-10-09T04:00:14.760Z,3.40
2022-10-09T04:02:46.574Z,3.30
2022-10-09T04:05:16.001Z,3.65
2022-10-09T04:07:42.878Z,3.88
2022-10-09T04:10:14.931Z,4.10
2022-10-09T04:12:42.184Z,27.63
2022-10-09T04:15:11.416Z,24.02
2022-10-09T04:17:38.020Z,6.03
2022-10-09T04:20:05.144Z,3.80
2022-10-09T04:22:37.089Z,3.65
2022-10-09T04:25:07.178Z,4.22
2022-10-09T04:27:36.013Z,4.32
2022-10-09T04:30:04.272Z,3.85
2022-10-09T04:32:30.894Z,4.15
2022-10-09T04:34:57.732Z,4.28
2022-10-09T04:37:28.164Z,4.45
2022-10-09T04:39:57.253Z,4.10
2022-10-09T04:42:23.929Z,3.88
2022-10-09T04:44:50.867Z,3.95
2022-10-09T04:47:20.005Z,4.13
2022-10-09T04:49:51.249Z,4.97
2022-10-09T04:52:18.279Z,4.28
2022-10-09T04:54:48.108Z,5.35
2022-10-09T04:57:23.506Z,4.43
2022-10-09T04:59:50.163Z,4.20
2022-10-09T05:02:16.810Z,3.80
2022-10-09T05:04:48.996Z,4.10
2022-10-09T05:07:15.729Z,4.15
2022-10-09T05:09:44.228Z,3.80
2022-10-09T05:12:10.806Z,4.07
2022-10-09T05:14:43.654Z,4.05
2022-10-09T05:17:14.808Z,4.63
2022-10-09T05:19:41.735Z,4.72
2022-10-09T05:22:08.360Z,4.28
2022-10-09T05:24:37.075Z,5.13
2022-10-09T05:27:03.841Z,3.95
2022-10-09T05:29:30.419Z,4.95
2022-10-09T05:31:57.163Z,4.78
2022-10-09T05:34:26.021Z,4.43
2022-10-09T05:36:54.965Z,4.47
2022-10-09T05:39:21.740Z,5.30
2022-10-09T05:41:48.357Z,4.97
2022-10-09T05:44:18.282Z,4.65
2022-10-09T05:46:52.028Z,4.97
2022-10-09T05:49:18.687Z,5.40
2022-10-09T05:51:45.409Z,4.75
2022-10-09T05:54:22.604Z,5.15
2022-10-09T05:56:55.364Z,5.43
2022-10-09T06:01:53.877Z,4.97
2022-10-09T06:04:26.274Z,3.67
2022-10-09T06:07:01.344Z,5.05
2022-10-09T06:09:28.522Z,5.00
2022-10-09T06:12:00.789Z,4.63
2022-10-09T06:14:29.956Z,4.63
2022-10-09T06:17:03.364Z,4.65
2022-10-09T06:19:30.091Z,4.80
2022-10-09T06:22:02.416Z,4.43
2022-10-09T06:24:31.158Z,4.45
2022-10-09T06:27:01.890Z,4.80
2022-10-09T06:29:32.790Z,5.07
2022-10-09T06:32:05.311Z,4.95
2022-10-09T06:34:32.879Z,5.05
2022-10-09T06:37:10.260Z,5.70
2022-10-09T06:39:37.019Z,8.02
2022-10-09T06:42:29.195Z,6.07
2022-10-09T06:48:07.413Z,10.23
2022-10-09T06:50:39.848Z,7.65
2022-10-09T06:53:08.746Z,6.90
2022-10-09T07:16:04.667Z,4.80
2022-10-09T07:18:35.718Z,4.53
2022-10-09T07:21:09.233Z,5.00
2022-10-09T07:23:40.232Z,5.30
2022-10-09T07:26:33.861Z,5.25
2022-10-09T07:29:00.921Z,4.90
2022-10-09T07:31:28.544Z,4.70
2022-10-09T07:33:56.275Z,4.75
2022-10-09T07:36:26.368Z,3.90
2022-10-09T07:38:57.196Z,3.92
2022-10-09T07:41:57.454Z,3.90
2022-10-09T07:44:29.380Z,4.25
2022-10-09T07:46:56.032Z,4.90
2022-10-09T07:49:22.672Z,4.32
2022-10-09T07:51:50.541Z,4.53
2022-10-09T07:54:17.534Z,4.00
2022-10-09T07:56:46.287Z,3.10
2022-10-09T07:59:41.339Z,3.58
2022-10-09T08:02:11.128Z,3.30
2022-10-09T08:04:44.513Z,3.38
2022-10-09T08:07:12.259Z,2.95
2022-10-09T08:09:49.499Z,3.00
2022-10-09T08:12:16.170Z,2.97
2022-10-09T08:14:48.251Z,2.20
2022-10-09T08:17:19.407Z,2.47
2022-10-09T08:19:46.298Z,2.80
2022-10-09T08:22:12.961Z,2.47
2022-10-09T08:24:41.409Z,2.03
2022-10-09T08:27:09.159Z,2.22
2022-10-09T08:29:40.222Z,2.47
2022-10-09T08:32:07.113Z,2.42
2022-10-09T08:34:34.457Z,14.50
2022-10-09T08:37:03.730Z,6.15
2022-10-09T08:40:06.746Z,4.45
2022-10-09T08:42:53.561Z,4.43
2022-10-09T08:45:24.484Z,3.45
2022-10-09T08:47:59.683Z,9.48
2022-10-09T08:50:37.334Z,3.30
2022-10-09T08:53:12.786Z,6.05
2022-10-09T08:55:58.813Z,4.50
2022-10-09T08:58:39.509Z,3.00
2022-10-09T09:01:24.140Z,2.13
2022-10-09T09:04:33.361Z,2.35
2022-10-09T09:07:08.966Z,2.08
2022-10-09T09:10:03.451Z,1.90
2022-10-09T09:12:42.130Z,1.95
2022-10-09T09:15:17.806Z,2.03
2022-10-09T09:18:10.311Z,2.47
2022-10-09T09:20:57.727Z,1.80
2022-10-09T09:23:39.501Z,1.98
2022-10-09T09:26:15.696Z,1.95
2022-10-09T09:28:43.959Z,1.83
2022-10-09T09:31:55.224Z,2.00
2022-10-09T09:34:40.671Z,1.65
2022-10-09T09:37:12.622Z,1.98
2022-10-09T09:42:33.575Z,1.98
2022-10-09T09:47:34.487Z,2.97
2022-10-09T09:50:18.711Z,2.13
2022-10-09T09:52:50.568Z,2.00
2022-10-09T09:55:29.790Z,1.50
2022-10-09T10:01:27.585Z,1.52
2022-10-09T10:04:00.002Z,1.20
2022-10-09T10:06:42.720Z,1.95
2022-10-09T10:12:03.883Z,1.70
2022-10-09T10:14:31.844Z,1.95
2022-10-09T10:17:02.204Z,1.58
2022-10-09T10:19:41.692Z,2.00
2022-10-09T10:22:24.290Z,1.73
2022-10-09T10:24:56.605Z,1.63
2022-10-09T10:27:43.246Z,1.85
2022-10-09T10:33:28.740Z,1.63
2022-10-09T10:35:57.685Z,1.50
2022-10-09T10:38:47.222Z,1.48
2022-10-09T10:41:18.879Z,1.65
2022-10-09T10:43:52.713Z,1.50
2022-10-09T10:46:59.358Z,1.50
2022-10-09T10:49:30.559Z,1.40
2022-10-09T10:52:24.251Z,1.73
2022-10-09T10:55:17.766Z,1.48
2022-10-09T10:58:12.859Z,1.70
2022-10-09T11:00:49.819Z,1.58
2022-10-09T11:03:57.219Z,1.63
2022-10-09T11:07:14.616Z,1.65
2022-10-09T11:10:17.153Z,1.70
2022-10-09T11:13:00.223Z,1.30
2022-10-09T11:15:27.323Z,1.52
2022-10-09T11:18:20.600Z,1.83
2022-10-09T11:21:05.766Z,1.17
2022-10-09T11:26:29.707Z,1.50
2022-10-09T11:29:02.088Z,1.25
2022-10-09T11:34:40.334Z,1.60
2022-10-09T11:49:09.905Z,1.42
2022-10-09T11:51:57.745Z,0.98
2022-10-09T11:54:26.814Z,1.10
2022-10-09T11:57:00.795Z,1.35
2022-10-09T11:59:36.026Z,0.95
2022-10-09T12:02:26.808Z,1.52
2022-10-09T12:04:55.389Z,1.35
2022-10-09T12:07:41.593Z,1.38
2022-10-09T12:10:33.928Z,1.20
2022-10-09T12:13:41.727Z,1.50
2022-10-09T12:16:28.162Z,1.05
2022-10-09T12:18:56.362Z,1.25
2022-10-09T12:21:41.270Z,1.20
2022-10-09T12:24:26.752Z,1.38
2022-10-09T12:27:03.249Z,1.13
2022-10-09T12:32:37.333Z,0.98
2022-10-09T12:35:45.518Z,1.15
2022-10-09T12:38:37.105Z,0.90
2022-10-09T12:41:09.949Z,1.30
2022-10-09T12:43:36.867Z,0.90
2022-10-09T12:46:03.813Z,0.80
2022-10-09T12:48:43.100Z,1.50
2022-10-09T12:51:37.626Z,0.90
2022-10-09T12:54:09.054Z,1.20
2022-10-09T12:56:37.898Z,0.93
2022-10-09T12:59:06.297Z,0.75
2022-10-09T13:01:36.674Z,0.88
2022-10-09T13:04:35.927Z,0.75
2022-10-09T13:07:07.335Z,1.08
2022-10-09T13:09:38.649Z,1.10
2022-10-09T13:12:23.008Z,1.08
2022-10-09T13:15:01.812Z,0.82
2022-10-09T13:17:35.067Z,1.00
2022-10-09T13:20:25.212Z,0.98
2022-10-09T13:22:55.931Z,0.77
2022-10-09T13:25:25.299Z,0.80
2022-10-09T13:28:19.472Z,1.30
2022-10-09T13:30:47.641Z,0.95
2022-10-09T13:33:16.108Z,1.10
2022-10-09T13:35:43.796Z,1.10
2022-10-09T13:44:35.294Z,0.70
2022-10-09T13:47:02.190Z,0.80
2022-10-09T13:49:29.526Z,0.68
2022-10-09T13:52:02.735Z,0.85
2022-10-09T13:54:31.640Z,0.90
2022-10-09T13:57:00.428Z,0.80
2022-10-09T13:59:30.674Z,0.90
2022-10-09T14:02:02.096Z,0.90
2022-10-09T14:04:34.112Z,0.77
2022-10-09T14:07:01.916Z,1.10
2022-10-09T14:09:28.550Z,0.95
2022-10-09T14:11:59.084Z,0.75
2022-10-09T14:14:28.107Z,1.40
2022-10-09T14:16:57.144Z,1.05
2022-10-09T14:19:27.356Z,0.80
2022-10-09T14:21:58.108Z,0.60
2022-10-09T14:24:26.348Z,0.82
2022-10-09T14:26:53.013Z,0.70
2022-10-09T14:38:30.945Z,1.13
2022-10-09T14:40:59.154Z,0.80
2022-10-09T14:43:27.297Z,1.00
2022-10-09T14:46:05.927Z,0.75
2022-10-09T14:48:35.140Z,1.20
2022-10-09T14:51:09.595Z,0.93
2022-10-09T14:53:36.519Z,0.85
2022-10-09T14:56:05.428Z,0.70
2022-10-09T14:58:37.015Z,0.82
2022-10-09T15:01:22.680Z,0.90
2022-10-09T15:03:49.535Z,0.88
2022-10-09T15:06:19.330Z,0.90
2022-10-09T15:08:46.015Z,1.27
2022-10-09T15:11:14.151Z,1.10
2022-10-09T15:13:45.157Z,1.23
2022-10-09T15:16:18.104Z,1.23
2022-10-09T15:18:49.129Z,1.05
2022-10-09T15:21:28.307Z,0.95
2022-10-09T15:23:57.339Z,0.80
2022-10-09T15:26:25.788Z,1.00
2022-10-09T15:28:54.810Z,1.00
2022-10-09T15:31:25.302Z,0.90
2022-10-09T15:33:53.520Z,1.00
2022-10-09T15:36:24.259Z,1.40
2022-10-09T15:38:53.252Z,1.00
2022-10-09T15:41:32.310Z,1.30
2022-10-09T15:44:05.175Z,1.23
2022-10-09T15:46:33.436Z,1.60
2022-10-09T15:49:00.393Z,1.10
2022-10-09T15:51:32.536Z,1.83
2022-10-09T15:54:02.706Z,5.70
2022-10-09T15:56:49.208Z,2.45
2022-10-09T15:59:18.851Z,2.83
2022-10-09T16:01:47.481Z,2.28
2022-10-09T16:04:19.983Z,2.35
2022-10-09T16:09:33.440Z,2.70
2022-10-09T16:12:00.495Z,5.63
2022-10-09T16:14:54.424Z,1.92
2022-10-09T16:17:28.369Z,0.77
2022-10-09T16:20:00.342Z,1.10
2022-10-09T16:22:34.296Z,1.65
2022-10-09T16:25:02.268Z,1.40
2022-10-09T16:27:29.237Z,2.03
2022-10-09T16:29:55.840Z,2.97
2022-10-09T16:32:22.515Z,1.80
2022-10-09T16:34:50.283Z,1.50
2022-10-09T16:37:19.035Z,2.10
2022-10-09T16:39:49.308Z,2.15
2022-10-09T16:42:16.456Z,1.85
2022-10-09T16:44:47.387Z,1.65
2022-10-09T16:47:16.250Z,2.63
2022-10-09T16:49:43.096Z,2.13
2022-10-09T16:52:13.349Z,3.35
2022-10-09T16:54:43.903Z,5.85
2022-10-09T16:57:18.377Z,7.43
2022-10-09T16:59:50.815Z,17.05
2022-10-09T17:02:24.976Z,3.28
2022-10-09T17:04:52.344Z,2.45
2022-10-09T17:07:20.291Z,2.30
2022-10-09T17:09:49.181Z,2.10
2022-10-09T17:12:24.036Z,2.05
2022-10-09T17:14:50.789Z,2.80
2022-10-09T17:17:17.441Z,2.58
2022-10-09T17:19:45.193Z,2.25
2022-10-09T17:22:15.369Z,1.90
2022-10-09T17:24:42.280Z,2.30
2022-10-09T17:27:34.408Z,4.18
2022-10-09T17:30:04.324Z,4.60
2022-10-09T17:32:31.002Z,3.28
2022-10-09T17:35:04.335Z,2.60
2022-10-09T17:37:35.423Z,2.88
2022-10-09T17:40:02.227Z,2.78
2022-10-09T17:42:28.982Z,3.13
2022-10-09T17:44:57.869Z,2.92
2022-10-09T17:47:24.613Z,3.70
2022-10-09T17:49:51.533Z,4.32
2022-10-09T17:52:18.172Z,3.50
2022-10-09T17:54:48.415Z,2.78
2022-10-09T17:57:17.585Z,2.80
2022-10-09T17:59:55.422Z,2.55
2022-10-09T18:02:27.243Z,2.05
2022-10-09T18:04:56.596Z,2.20
2022-10-09T18:07:47.031Z,2.47
2022-10-09T18:10:16.056Z,3.20
2022-10-09T18:12:46.499Z,6.28
2022-10-09T18:15:20.954Z,8.00
2022-10-09T18:18:00.525Z,13.35
2022-10-09T18:20:29.624Z,8.85
2022-10-09T18:22:57.103Z,5.95
2022-10-09T18:25:24.063Z,4.35
2022-10-09T18:27:54.067Z,2.85
2022-10-09T18:30:26.469Z,2.53
2022-10-09T18:32:53.328Z,3.53
2022-10-09T18:38:16.585Z,3.38
2022-10-09T18:40:45.784Z,4.47
2022-10-09T18:43:12.824Z,5.55
2022-10-09T18:45:48.467Z,6.10
2022-10-09T18:48:16.305Z,6.25
2022-10-09T18:50:43.856Z,5.95
2022-10-09T18:53:13.492Z,6.47
2022-10-09T18:55:43.271Z,4.13
2022-10-09T18:58:16.777Z,4.55
2022-10-09T19:00:43.504Z,3.53
2022-10-09T19:03:10.147Z,2.63
2022-10-09T19:05:36.935Z,2.85
2022-10-09T19:11:02.139Z,2.45
2022-10-09T19:32:08.758Z,2.47
2022-10-09T19:34:39.174Z,3.13
2022-10-09T19:37:09.637Z,2.95
2022-10-09T19:39:37.529Z,2.55
2022-10-09T19:42:07.798Z,2.75
2022-10-09T19:44:36.349Z,2.78
2022-10-09T19:47:06.519Z,2.65
2022-10-09T19:49:39.031Z,2.78
2022-10-09T19:52:10.180Z,2.85
2022-10-09T19:54:54.431Z,3.42
2022-10-09T19:57:49.149Z,2.80
2022-10-09T20:00:21.637Z,2.20
2022-10-09T20:02:55.745Z,3.42
2022-10-09T20:05:31.779Z,2.90
2022-10-09T20:08:01.518Z,2.78
2022-10-09T20:10:28.153Z,2.80
2022-10-09T20:12:58.198Z,2.97
2022-10-09T20:16:13.112Z,3.42
2022-10-09T20:27:28.588Z,2.72
2022-10-09T20:29:59.889Z,2.65
2022-10-09T20:32:36.319Z,3.08
2022-10-09T20:35:05.693Z,2.63
2022-10-09T20:37:34.926Z,3.08
2022-10-09T20:40:05.796Z,2.92
2022-10-09T20:42:35.473Z,3.03
2022-10-09T20:45:02.401Z,2.85
2022-10-09T20:47:29.010Z,2.95
2022-10-09T20:49:58.127Z,3.83
2022-10-09T20:52:24.873Z,2.80
2022-10-09T20:54:52.392Z,3.65
2022-10-09T20:57:19.317Z,2.97
2022-10-09T20:59:46.055Z,3.40
2022-10-09T21:02:17.765Z,3.17
2022-10-09T21:04:45.711Z,3.50
2022-10-09T21:07:12.374Z,3.50
2022-10-09T21:09:53.883Z,4.10
2022-10-09T21:12:22.753Z,3.67
2022-10-09T21:14:52.795Z,3.55
2022-10-09T21:17:20.097Z,4.28
2022-10-09T21:20:14.371Z,3.63
2022-10-09T21:22:44.224Z,3.63
2022-10-09T21:25:10.862Z,3.60
2022-10-09T21:28:02.379Z,4.50
2022-10-09T21:30:41.586Z,4.10
2022-10-09T21:33:09.570Z,5.20
2022-10-09T21:35:47.895Z,4.70
2022-10-09T21:38:24.069Z,5.55
2022-10-09T21:41:09.294Z,5.57
2022-10-09T21:43:36.016Z,3.92
2022-10-09T21:46:02.599Z,3.08
2022-10-09T21:48:31.685Z,3.42
2022-10-09T21:50:58.480Z,3.72
2022-10-09T21:53:25.494Z,3.55
2022-10-09T21:55:52.197Z,3.60
2022-10-09T21:58:19.001Z,4.57
2022-10-09T22:00:45.923Z,4.82
2022-10-09T22:03:12.534Z,5.97
2022-10-09T22:05:42.348Z,6.30
2022-10-09T22:08:09.819Z,5.78
2022-10-09T22:10:36.380Z,4.38
2022-10-09T22:13:03.863Z,3.95
2022-10-09T22:15:31.557Z,3.38
2022-10-09T22:17:59.595Z,3.10
2022-10-09T22:20:27.432Z,3.63
2022-10-09T22:22:55.327Z,3.05
2022-10-09T22:25:22.755Z,3.28
2022-10-09T22:27:54.842Z,3.15
2022-10-09T22:30:23.573Z,3.35
2022-10-09T22:32:55.568Z,3.40
2022-10-09T22:35:27.761Z,3.40
2022-10-09T22:37:54.372Z,3.08
2022-10-09T22:40:25.880Z,2.72
2022-10-09T22:42:54.574Z,2.83
2022-10-09T22:45:27.939Z,3.88
2022-10-09T22:47:54.641Z,3.95
2022-10-09T22:50:21.486Z,3.35
2022-10-09T22:52:49.670Z,3.20
2022-10-09T22:55:16.508Z,2.83
2022-10-09T23:00:39.635Z,3.15
2022-10-09T23:03:31.698Z,3.95
2022-10-09T23:06:28.134Z,3.33
2022-10-09T23:08:55.411Z,4.18
2022-10-09T23:11:22.919Z,4.82
2022-10-09T23:13:57.668Z,3.95
2022-10-09T23:16:29.432Z,4.60
2022-10-09T23:19:04.124Z,4.53
2022-10-09T23:21:37.766Z,5.95
2022-10-09T23:24:06.001Z,5.38
2022-10-09T23:26:34.438Z,7.50
2022-10-09T23:29:08.542Z,6.93
2022-10-09T23:31:35.765Z,7.78
2022-10-09T23:34:04.763Z,7.90
2022-10-09T23:36:34.209Z,5.68
2022-10-09T23:39:02.172Z,4.38
2022-10-09T23:41:28.878Z,4.32
2022-10-09T23:43:58.874Z,5.15
2022-10-09T23:46:29.869Z,3.65
2022-10-09T23:49:01.432Z,3.63
2022-10-09T23:51:28.498Z,3.80
2022-10-09T23:54:01.862Z,3.67
2022-10-09T23:56:31.140Z,4.25
2022-10-09T23:58:59.099Z,3.67
